createdAt,value
2023-01-28T18:07:50.755Z,99242.91
2023-01-28T18:10:18.171Z,99267.91
2023-01-28T18:12:45.088Z,99256.34
2023-01-28T18:15:12.254Z,99258.50
2023-01-28T18:17:39.208Z,99262.63
2023-01-28T18:20:06.814Z,99263.63
2023-01-28T18:22:34.027Z,99261.69
2023-01-28T18:25:01.011Z,99270.25
2023-01-28T18:27:27.924Z,99269.19
2023-01-28T18:29:55.123Z,99257.63
2023-01-28T18:32:22.024Z,99267.75
2023-01-28T18:35:27.296Z,99263.06
2023-01-28T18:38:09.536Z,99261.75
2023-01-28T18:41:07.889Z,99260.56
2023-01-28T18:43:57.754Z,99260.34
2023-01-28T18:46:42.101Z,99264.03
2023-01-28T18:49:30.146Z,99271.25
2023-01-28T18:51:57.038Z,99265.97
2023-01-28T18:54:25.050Z,99259.59
2023-01-28T18:56:52.121Z,99259.94
2023-01-28T18:59:19.293Z,99271.00
2023-01-28T19:01:48.150Z,99278.53
2023-01-28T19:04:15.925Z,99280.44
2023-01-28T19:06:43.147Z,99270.66
2023-01-28T19:09:11.847Z,99220.31
2023-01-28T19:11:41.046Z,99272.72
2023-01-28T19:14:09.344Z,99274.06
2023-01-28T19:16:37.519Z,99281.47
2023-01-28T19:19:04.933Z,99274.41
2023-01-28T19:21:32.868Z,99283.09
2023-01-28T19:24:14.900Z,99278.28
2023-01-28T19:26:44.938Z,99283.84
2023-01-28T19:29:15.638Z,99288.69
2023-01-28T19:31:44.602Z,99284.88
2023-01-28T19:34:11.811Z,99284.56
2023-01-28T19:36:39.142Z,99271.75
2023-01-28T19:39:08.415Z,99286.59
2023-01-28T19:41:36.732Z,99284.03
2023-01-28T19:44:04.469Z,99285.75
2023-01-28T19:46:31.868Z,99289.75
2023-01-28T19:48:58.861Z,99286.38
2023-01-28T19:51:26.054Z,99289.34
2023-01-28T19:53:54.327Z,99289.84
2023-01-28T19:56:23.587Z,99294.56
2023-01-28T19:58:50.575Z,99292.53
2023-01-28T20:01:20.241Z,99302.69
2023-01-28T20:03:52.891Z,99289.53
2023-01-28T20:06:19.988Z,99306.31
2023-01-28T20:08:52.133Z,99245.03
2023-01-28T20:11:19.681Z,99306.47
2023-01-28T20:13:47.729Z,99303.63
2023-01-28T20:16:19.524Z,99299.03
2023-01-28T20:18:52.298Z,99291.56
2023-01-28T20:21:20.138Z,99304.97
2023-01-28T20:23:48.449Z,99307.09
2023-01-28T20:26:16.091Z,99310.47
2023-01-28T20:28:43.015Z,99307.72
2023-01-28T20:31:11.392Z,99317.19
2023-01-28T20:33:38.575Z,99318.09
2023-01-28T20:36:10.234Z,99318.59
2023-01-28T20:38:39.333Z,99316.06
2023-01-28T20:41:10.557Z,99318.81
2023-01-28T20:43:39.619Z,99315.72
2023-01-28T20:46:09.216Z,99319.22
2023-01-28T20:48:36.157Z,99324.72
2023-01-28T20:51:11.477Z,99320.94
2023-01-28T20:53:38.869Z,99322.41
2023-01-28T20:56:06.243Z,99313.31
2023-01-28T20:58:34.880Z,99311.69
2023-01-28T21:01:02.194Z,99308.19
2023-01-28T21:03:29.236Z,99319.84
2023-01-28T21:05:56.167Z,99322.41
2023-01-28T21:08:23.642Z,99314.13
2023-01-28T21:10:50.701Z,99319.59
2023-01-28T21:13:17.801Z,99325.00
2023-01-28T21:15:52.872Z,99335.50
2023-01-28T21:18:19.828Z,99334.66
2023-01-28T21:20:46.937Z,99339.75
2023-01-28T21:23:15.192Z,99345.78
2023-01-28T21:25:43.779Z,99349.59
2023-01-28T21:28:11.336Z,99351.53
2023-01-28T21:30:38.970Z,99355.44
2023-01-28T21:33:06.685Z,99353.44
2023-01-28T21:35:41.127Z,99361.28
2023-01-28T21:38:08.330Z,99361.91
2023-01-28T21:40:36.101Z,99365.63
2023-01-28T21:43:03.484Z,99361.19
2023-01-28T21:45:30.645Z,99372.19
2023-01-28T21:47:57.724Z,99369.16
2023-01-28T21:50:24.648Z,99368.91
2023-01-28T21:52:51.905Z,99365.09
2023-01-28T21:55:19.746Z,99360.22
2023-01-28T21:57:46.643Z,99365.97
2023-01-28T22:00:14.140Z,99364.25
2023-01-28T22:02:41.448Z,99367.66
2023-01-28T22:05:08.634Z,99368.38
2023-01-28T22:07:35.598Z,99353.44
2023-01-28T22:10:02.562Z,99374.31
2023-01-28T22:12:29.497Z,99366.50
2023-01-28T22:14:56.710Z,99353.88
2023-01-28T22:17:23.661Z,99357.25
2023-01-28T22:19:50.615Z,99357.78
2023-01-28T22:22:18.391Z,99356.59
2023-01-28T22:24:45.388Z,99353.75
2023-01-28T22:27:12.327Z,99355.22
2023-01-28T22:29:39.246Z,99351.75
2023-01-28T22:32:06.200Z,99361.94
2023-01-28T22:34:33.209Z,99370.97
2023-01-28T22:37:00.085Z,99371.16
2023-01-28T22:39:26.986Z,99373.41
2023-01-28T22:41:53.880Z,99378.81
2023-01-28T22:44:20.811Z,99379.97
2023-01-28T22:46:48.405Z,99372.56
2023-01-28T22:49:15.426Z,99386.22
2023-01-28T22:51:42.660Z,99368.75
2023-01-28T22:54:11.756Z,99385.69
2023-01-28T22:56:39.063Z,99378.06
2023-01-28T22:59:06.323Z,99379.44
2023-01-28T23:01:33.550Z,99382.63
2023-01-28T23:04:00.557Z,99383.16
2023-01-28T23:06:27.999Z,99377.19
2023-01-28T23:08:56.563Z,99375.53
2023-01-28T23:11:28.299Z,99379.84
2023-01-28T23:14:20.250Z,99369.38
2023-01-28T23:17:06.071Z,99363.09
2023-01-28T23:19:52.251Z,99366.09
2023-01-28T23:22:43.874Z,99379.13
2023-01-28T23:25:11.715Z,99359.81
2023-01-28T23:27:38.761Z,99370.22
2023-01-28T23:30:10.367Z,99365.13
2023-01-28T23:32:53.138Z,99357.91
2023-01-28T23:35:20.389Z,99358.78
2023-01-28T23:37:48.068Z,99353.25
2023-01-28T23:40:16.462Z,99354.72
2023-01-28T23:42:48.351Z,99346.91
2023-01-28T23:45:15.614Z,99353.16
2023-01-28T23:47:42.634Z,99347.09
2023-01-28T23:50:10.604Z,99339.56
2023-01-28T23:52:37.630Z,99328.22
2023-01-28T23:55:05.034Z,99341.69
2023-01-28T23:57:32.058Z,99342.63
2023-01-28T23:59:58.923Z,99344.53
